Bromer, Indiana
Current Conditions -  °F | °C
As of 4:53 AM on Tuesday 27 Jan 2015 (Local Time) from KBMG Reporting Station
Overcast Overcast  
Wind Chill: 27°   Ceiling: 700
Heat Index: 27°   Visibility: 7mi
Dew Point: 25°   Wind: 0mph
Humidity: 92%   Direction: NA
Pressure: 29.91"   Gusts: NA
Location:  38.6433°N, 86.4481°W
Report Text: KBMG 270953Z AUTO 00000KT 7SM OVC007 M03/M04 A2991 RMK AO2 CIG 005V010 SLP135 T10281039
Loading
Personal Weather Stations






























Interactive Weather Map New forecast layout! Learn more

10-Day Weather Forecast

Advertisements
Track Severe Weather on mobile